sensor_id;sensor_type;location;lat;lon;timestamp;pressure;altitude;pressure_sealevel;temperature;humidity
67109;BME280;54027;50.786;7.058;2023-08-21T00:00:05;101672.81;;;21.48;93.84
67109;BME280;54027;50.786;7.058;2023-08-21T00:02:31;101679.03;;;21.45;93.89
67109;BME280;54027;50.786;7.058;2023-08-21T00:04:56;101677.50;;;21.40;94.02
67109;BME280;54027;50.786;7.058;2023-08-21T00:07:22;101676.09;;;21.31;94.30
67109;BME280;54027;50.786;7.058;2023-08-21T00:09:48;101670.22;;;21.24;94.38
67109;BME280;54027;50.786;7.058;2023-08-21T00:12:13;101675.50;;;21.23;94.41
67109;BME280;54027;50.786;7.058;2023-08-21T00:14:38;101672.13;;;21.19;94.70
67109;BME280;54027;50.786;7.058;2023-08-21T00:17:04;101667.84;;;21.17;94.79
67109;BME280;54027;50.786;7.058;2023-08-21T00:19:30;101674.16;;;21.13;95.14
67109;BME280;54027;50.786;7.058;2023-08-21T00:21:55;101666.31;;;21.11;95.37
67109;BME280;54027;50.786;7.058;2023-08-21T00:24:20;101658.53;;;21.08;95.22
67109;BME280;54027;50.786;7.058;2023-08-21T00:26:46;101666.63;;;21.04;95.64
67109;BME280;54027;50.786;7.058;2023-08-21T00:29:11;101662.34;;;21.01;95.69
67109;BME280;54027;50.786;7.058;2023-08-21T00:31:37;101652.88;;;20.96;96.24
67109;BME280;54027;50.786;7.058;2023-08-21T00:34:02;101655.69;;;20.91;96.41
67109;BME280;54027;50.786;7.058;2023-08-21T00:36:27;101656.66;;;20.89;96.86
67109;BME280;54027;50.786;7.058;2023-08-21T00:38:53;101659.44;;;20.84;97.21
67109;BME280;54027;50.786;7.058;2023-08-21T00:41:18;101659.50;;;20.83;97.71
67109;BME280;54027;50.786;7.058;2023-08-21T00:43:45;101655.16;;;20.82;97.67
67109;BME280;54027;50.786;7.058;2023-08-21T00:46:10;101656.94;;;20.81;97.97
67109;BME280;54027;50.786;7.058;2023-08-21T00:48:36;101657.00;;;20.80;98.14
67109;BME280;54027;50.786;7.058;2023-08-21T00:51:03;101657.09;;;20.77;98.37
67109;BME280;54027;50.786;7.058;2023-08-21T00:53:29;101647.50;;;20.76;98.67
67109;BME280;54027;50.786;7.058;2023-08-21T00:55:55;101648.47;;;20.73;98.62
67109;BME280;54027;50.786;7.058;2023-08-21T00:58:20;101652.00;;;20.72;98.72
67109;BME280;54027;50.786;7.058;2023-08-21T01:00:46;101652.94;;;20.71;99.34
67109;BME280;54027;50.786;7.058;2023-08-21T01:03:14;101655.56;;;20.71;99.55
67109;BME280;54027;50.786;7.058;2023-08-21T01:05:39;101654.63;;;20.72;99.88
67109;BME280;54027;50.786;7.058;2023-08-21T01:10:45;101652.81;;;20.74;99.94
67109;BME280;54027;50.786;7.058;2023-08-21T01:16:09;101657.97;;;20.77;99.74
67109;BME280;54027;50.786;7.058;2023-08-21T01:18:35;101660.50;;;20.80;99.97
67109;BME280;54027;50.786;7.058;2023-08-21T01:21:02;101668.28;;;20.82;99.84
67109;BME280;54027;50.786;7.058;2023-08-21T01:23:35;101670.88;;;20.83;99.90
67109;BME280;54027;50.786;7.058;2023-08-21T01:26:00;101673.50;;;20.83;99.84
67109;BME280;54027;50.786;7.058;2023-08-21T01:28:26;101672.66;;;20.83;99.79
67109;BME280;54027;50.786;7.058;2023-08-21T01:31:03;101677.84;;;20.84;99.79
67109;BME280;54027;50.786;7.058;2023-08-21T01:33:33;101669.13;;;20.84;99.83
67109;BME280;54027;50.786;7.058;2023-08-21T01:36:02;101670.16;;;20.78;99.99
67109;BME280;54027;50.786;7.058;2023-08-21T01:38:32;101678.28;;;20.72;100.00
67109;BME280;54027;50.786;7.058;2023-08-21T01:40:57;101671.38;;;20.69;100.00
67109;BME280;54027;50.786;7.058;2023-08-21T01:43:23;101676.69;;;20.66;100.00
67109;BME280;54027;50.786;7.058;2023-08-21T01:45:49;101669.84;;;20.62;100.00
67109;BME280;54027;50.786;7.058;2023-08-21T01:48:14;101669.09;;;20.59;100.00
67109;BME280;54027;50.786;7.058;2023-08-21T01:50:40;101668.56;;;20.49;100.00
67109;BME280;54027;50.786;7.058;2023-08-21T01:53:05;101666.13;;;20.43;100.00
67109;BME280;54027;50.786;7.058;2023-08-21T01:55:30;101671.47;;;20.42;100.00
67109;BME280;54027;50.786;7.058;2023-08-21T01:57:56;101667.13;;;20.41;100.00
67109;BME280;54027;50.786;7.058;2023-08-21T02:00:21;101664.56;;;20.39;100.00
67109;BME280;54027;50.786;7.058;2023-08-21T02:02:47;101661.06;;;20.39;100.00
67109;BME280;54027;50.786;7.058;2023-08-21T02:05:12;101659.34;;;20.38;100.00
67109;BME280;54027;50.786;7.058;2023-08-21T02:07:37;101659.56;;;20.32;100.00
67109;BME280;54027;50.786;7.058;2023-08-21T02:10:03;101664.00;;;20.30;100.00
67109;BME280;54027;50.786;7.058;2023-08-21T02:12:29;101660.63;;;20.26;100.00
67109;BME280;54027;50.786;7.058;2023-08-21T02:14:54;101662.44;;;20.24;100.00
67109;BME280;54027;50.786;7.058;2023-08-21T02:17:19;101660.75;;;20.22;100.00
67109;BME280;54027;50.786;7.058;2023-08-21T02:19:45;101659.06;;;20.21;100.00
67109;BME280;54027;50.786;7.058;2023-08-21T02:22:10;101664.31;;;20.21;100.00
67109;BME280;54027;50.786;7.058;2023-08-21T02:24:35;101670.47;;;20.20;100.00
67109;BME280;54027;50.786;7.058;2023-08-21T02:27:01;101666.97;;;20.19;100.00
67109;BME280;54027;50.786;7.058;2023-08-21T02:29:26;101663.38;;;20.22;100.00
67109;BME280;54027;50.786;7.058;2023-08-21T02:31:52;101661.69;;;20.21;100.00
67109;BME280;54027;50.786;7.058;2023-08-21T02:34:17;101662.59;;;20.20;100.00
67109;BME280;54027;50.786;7.058;2023-08-21T02:36:42;101667.91;;;20.18;100.00
67109;BME280;54027;50.786;7.058;2023-08-21T02:39:08;101668.97;;;20.12;100.00
67109;BME280;54027;50.786;7.058;2023-08-21T02:41:33;101669.09;;;20.08;100.00
67109;BME280;54027;50.786;7.058;2023-08-21T02:43:58;101677.94;;;20.05;100.00
67109;BME280;54027;50.786;7.058;2023-08-21T02:46:24;101665.72;;;20.04;100.00
67109;BME280;54027;50.786;7.058;2023-08-21T02:48:49;101667.53;;;20.02;100.00
67109;BME280;54027;50.786;7.058;2023-08-21T02:51:14;101666.66;;;20.03;100.00
67109;BME280;54027;50.786;7.058;2023-08-21T02:53:40;101664.84;;;20.04;100.00
67109;BME280;54027;50.786;7.058;2023-08-21T02:56:05;101671.81;;;20.06;100.00
67109;BME280;54027;50.786;7.058;2023-08-21T02:58:30;101663.06;;;20.06;100.00
67109;BME280;54027;50.786;7.058;2023-08-21T03:00:57;101668.22;;;20.09;100.00
67109;BME280;54027;50.786;7.058;2023-08-21T03:03:22;101669.81;;;20.13;100.00
67109;BME280;54027;50.786;7.058;2023-08-21T03:05:48;101666.13;;;20.18;100.00
67109;BME280;54027;50.786;7.058;2023-08-21T03:08:13;101669.50;;;20.22;100.00
67109;BME280;54027;50.786;7.058;2023-08-21T03:10:38;101666.84;;;20.24;100.00
67109;BME280;54027;50.786;7.058;2023-08-21T03:13:04;101672.09;;;20.24;100.00
67109;BME280;54027;50.786;7.058;2023-08-21T03:15:29;101675.69;;;20.21;100.00
67109;BME280;54027;50.786;7.058;2023-08-21T03:17:55;101669.56;;;20.21;100.00
67109;BME280;54027;50.786;7.058;2023-08-21T03:20:20;101668.69;;;20.20;100.00
67109;BME280;54027;50.786;7.058;2023-08-21T03:22:46;101666.97;;;20.19;100.00
67109;BME280;54027;50.786;7.058;2023-08-21T03:25:12;101667.94;;;20.16;100.00
67109;BME280;54027;50.786;7.058;2023-08-21T03:27:37;101673.28;;;20.13;100.00
67109;BME280;54027;50.786;7.058;2023-08-21T03:30:06;101673.34;;;20.12;100.00
67109;BME280;54027;50.786;7.058;2023-08-21T03:32:32;101677.78;;;20.10;100.00
67109;BME280;54027;50.786;7.058;2023-08-21T03:34:57;101672.59;;;20.08;100.00
67109;BME280;54027;50.786;7.058;2023-08-21T03:37:23;101671.81;;;20.06;100.00
67109;BME280;54027;50.786;7.058;2023-08-21T03:39:48;101669.28;;;20.03;100.00
67109;BME280;54027;50.786;7.058;2023-08-21T03:42:14;101670.22;;;20.01;100.00
67109;BME280;54027;50.786;7.058;2023-08-21T03:44:39;101665.03;;;19.99;100.00
67109;BME280;54027;50.786;7.058;2023-08-21T03:47:05;101668.53;;;19.98;100.00
67109;BME280;54027;50.786;7.058;2023-08-21T03:49:30;101672.91;;;19.99;100.00
67109;BME280;54027;50.786;7.058;2023-08-21T03:51:55;101663.38;;;19.97;100.00
67109;BME280;54027;50.786;7.058;2023-08-21T03:54:21;101655.63;;;19.92;100.00
67109;BME280;54027;50.786;7.058;2023-08-21T03:56:46;101650.53;;;19.88;100.00
67109;BME280;54027;50.786;7.058;2023-08-21T03:59:12;101651.50;;;19.85;100.00
67109;BME280;54027;50.786;7.058;2023-08-21T04:01:37;101650.75;;;19.82;100.00
67109;BME280;54027;50.786;7.058;2023-08-21T04:04:03;101649.94;;;19.80;100.00
67109;BME280;54027;50.786;7.058;2023-08-21T04:06:28;101657.81;;;19.78;100.00
67109;BME280;54027;50.786;7.058;2023-08-21T04:08:53;101649.16;;;19.76;100.00
67109;BME280;54027;50.786;7.058;2023-08-21T04:11:19;101660.53;;;19.75;100.00
67109;BME280;54027;50.786;7.058;2023-08-21T04:13:44;101656.19;;;19.74;100.00
67109;BME280;54027;50.786;7.058;2023-08-21T04:16:10;101654.41;;;19.75;100.00
67109;BME280;54027;50.786;7.058;2023-08-21T04:18:37;101662.25;;;19.76;100.00
67109;BME280;54027;50.786;7.058;2023-08-21T04:21:03;101660.50;;;19.77;100.00
67109;BME280;54027;50.786;7.058;2023-08-21T04:23:28;101669.25;;;19.76;100.00
67109;BME280;54027;50.786;7.058;2023-08-21T04:26:00;101666.56;;;19.77;100.00
67109;BME280;54027;50.786;7.058;2023-08-21T04:28:26;101670.06;;;19.79;100.00
67109;BME280;54027;50.786;7.058;2023-08-21T04:30:51;101659.56;;;19.79;100.00
67109;BME280;54027;50.786;7.058;2023-08-21T04:33:16;101662.19;;;19.79;100.00
67109;BME280;54027;50.786;7.058;2023-08-21T04:35:42;101657.81;;;19.80;100.00
67109;BME280;54027;50.786;7.058;2023-08-21T04:38:07;101656.88;;;19.81;100.00
67109;BME280;54027;50.786;7.058;2023-08-21T04:40:32;101673.47;;;19.83;100.00
67109;BME280;54027;50.786;7.058;2023-08-21T04:42:58;101676.81;;;19.86;100.00
67109;BME280;54027;50.786;7.058;2023-08-21T04:45:23;101674.09;;;19.89;100.00
67109;BME280;54027;50.786;7.058;2023-08-21T04:47:48;101674.91;;;19.91;100.00
67109;BME280;54027;50.786;7.058;2023-08-21T04:50:14;101673.03;;;19.95;100.00
67109;BME280;54027;50.786;7.058;2023-08-21T04:52:40;101671.28;;;19.95;100.00
67109;BME280;54027;50.786;7.058;2023-08-21T04:55:06;101681.72;;;19.97;100.00
67109;BME280;54027;50.786;7.058;2023-08-21T04:57:32;101674.72;;;19.97;100.00
67109;BME280;54027;50.786;7.058;2023-08-21T04:59:57;101679.03;;;19.98;100.00
67109;BME280;54027;50.786;7.058;2023-08-21T05:02:23;101688.66;;;19.99;100.00
67109;BME280;54027;50.786;7.058;2023-08-21T05:04:48;101681.53;;;20.03;100.00
67109;BME280;54027;50.786;7.058;2023-08-21T05:07:13;101681.47;;;20.04;100.00
67109;BME280;54027;50.786;7.058;2023-08-21T05:09:39;101683.22;;;20.04;100.00
67109;BME280;54027;50.786;7.058;2023-08-21T05:12:05;101681.38;;;20.07;100.00
67109;BME280;54027;50.786;7.058;2023-08-21T05:14:31;101679.56;;;20.09;100.00
67109;BME280;54027;50.786;7.058;2023-08-21T05:16:56;101683.91;;;20.10;100.00
67109;BME280;54027;50.786;7.058;2023-08-21T05:19:21;101686.41;;;20.13;100.00
67109;BME280;54027;50.786;7.058;2023-08-21T05:21:47;101682.78;;;20.17;100.00
67109;BME280;54027;50.786;7.058;2023-08-21T05:24:12;101691.38;;;20.23;100.00
67109;BME280;54027;50.786;7.058;2023-08-21T05:26:38;101690.28;;;20.28;100.00
67109;BME280;54027;50.786;7.058;2023-08-21T05:29:03;101694.53;;;20.32;100.00
67109;BME280;54027;50.786;7.058;2023-08-21T05:31:29;101689.03;;;20.40;100.00
67109;BME280;54027;50.786;7.058;2023-08-21T05:33:55;101692.38;;;20.45;100.00
67109;BME280;54027;50.786;7.058;2023-08-21T05:36:20;101704.47;;;20.49;100.00
67109;BME280;54027;50.786;7.058;2023-08-21T05:38:46;101705.09;;;20.57;100.00
67109;BME280;54027;50.786;7.058;2023-08-21T05:41:13;101709.28;;;20.61;100.00
67109;BME280;54027;50.786;7.058;2023-08-21T05:43:38;101706.47;;;20.67;100.00
67109;BME280;54027;50.786;7.058;2023-08-21T05:46:05;101707.31;;;20.67;100.00
67109;BME280;54027;50.786;7.058;2023-08-21T05:48:31;101700.22;;;20.71;100.00
67109;BME280;54027;50.786;7.058;2023-08-21T05:50:56;101704.50;;;20.74;100.00
67109;BME280;54027;50.786;7.058;2023-08-21T05:53:22;101712.88;;;20.85;100.00
67109;BME280;54027;50.786;7.058;2023-08-21T05:55:47;101706.72;;;20.86;100.00
67109;BME280;54027;50.786;7.058;2023-08-21T05:58:13;101712.59;;;20.92;100.00
67109;BME280;54027;50.786;7.058;2023-08-21T06:00:39;101707.03;;;21.01;100.00
67109;BME280;54027;50.786;7.058;2023-08-21T06:03:04;101708.78;;;21.01;100.00
67109;BME280;54027;50.786;7.058;2023-08-21T06:05:30;101711.31;;;21.04;100.00
67109;BME280;54027;50.786;7.058;2023-08-21T06:07:55;101711.19;;;21.07;100.00
67109;BME280;54027;50.786;7.058;2023-08-21T06:10:21;101707.59;;;21.09;100.00
67109;BME280;54027;50.786;7.058;2023-08-21T06:12:46;101712.66;;;21.14;100.00
67109;BME280;54027;50.786;7.058;2023-08-21T06:15:13;101715.28;;;21.14;100.00
67109;BME280;54027;50.786;7.058;2023-08-21T06:17:39;101716.97;;;21.16;100.00
67109;BME280;54027;50.786;7.058;2023-08-21T06:20:06;101713.25;;;21.22;100.00
67109;BME280;54027;50.786;7.058;2023-08-21T06:22:33;101713.38;;;21.19;99.94
67109;BME280;54027;50.786;7.058;2023-08-21T06:24:59;101710.09;;;21.12;99.81
67109;BME280;54027;50.786;7.058;2023-08-21T06:27:24;101730.28;;;21.12;100.00
67109;BME280;54027;50.786;7.058;2023-08-21T06:29:49;101722.38;;;21.12;100.00
67109;BME280;54027;50.786;7.058;2023-08-21T06:32:15;101730.13;;;21.16;100.00
67109;BME280;54027;50.786;7.058;2023-08-21T06:34:40;101735.19;;;21.21;100.00
67109;BME280;54027;50.786;7.058;2023-08-21T06:37:05;101736.00;;;21.23;100.00
67109;BME280;54027;50.786;7.058;2023-08-21T06:39:31;101742.91;;;21.25;99.30
67109;BME280;54027;50.786;7.058;2023-08-21T06:41:56;101741.25;;;21.23;97.07
67109;BME280;54027;50.786;7.058;2023-08-21T06:44:22;101739.47;;;21.23;96.04
67109;BME280;54027;50.786;7.058;2023-08-21T06:46:47;101742.00;;;21.26;95.88
67109;BME280;54027;50.786;7.058;2023-08-21T06:49:13;101748.00;;;21.30;96.28
67109;BME280;54027;50.786;7.058;2023-08-21T06:51:38;101745.19;;;21.35;95.97
67109;BME280;54027;50.786;7.058;2023-08-21T06:54:04;101750.22;;;21.41;95.73
67109;BME280;54027;50.786;7.058;2023-08-21T06:56:29;101739.56;;;21.45;95.42
67109;BME280;54027;50.786;7.058;2023-08-21T06:58:54;101733.22;;;21.49;94.37
67109;BME280;54027;50.786;7.058;2023-08-21T07:01:21;101733.03;;;21.55;94.08
67109;BME280;54027;50.786;7.058;2023-08-21T07:03:46;101733.75;;;21.60;94.09
67109;BME280;54027;50.786;7.058;2023-08-21T07:06:12;101729.94;;;21.67;93.73
67109;BME280;54027;50.786;7.058;2023-08-21T07:08:38;101727.94;;;21.74;93.11
67109;BME280;54027;50.786;7.058;2023-08-21T07:11:06;101732.91;;;21.82;93.30
67109;BME280;54027;50.786;7.058;2023-08-21T07:13:33;101728.34;;;21.85;92.04
67109;BME280;54027;50.786;7.058;2023-08-21T07:15:58;101733.50;;;21.88;91.50
67109;BME280;54027;50.786;7.058;2023-08-21T07:18:27;101734.97;;;21.95;91.28
67109;BME280;54027;50.786;7.058;2023-08-21T07:20:52;101725.09;;;22.00;90.86
67109;BME280;54027;50.786;7.058;2023-08-21T07:23:18;101732.72;;;22.08;91.26
67109;BME280;54027;50.786;7.058;2023-08-21T07:25:44;101727.38;;;22.09;90.67
67109;BME280;54027;50.786;7.058;2023-08-21T07:28:09;101736.78;;;22.15;90.78
67109;BME280;54027;50.786;7.058;2023-08-21T07:30:37;101729.50;;;22.21;90.88
67109;BME280;54027;50.786;7.058;2023-08-21T07:33:03;101730.13;;;22.28;90.57
67109;BME280;54027;50.786;7.058;2023-08-21T07:35:29;101736.78;;;22.36;90.06
67109;BME280;54027;50.786;7.058;2023-08-21T07:37:54;101735.66;;;22.44;89.72
67109;BME280;54027;50.786;7.058;2023-08-21T07:40:20;101735.31;;;22.51;88.85
67109;BME280;54027;50.786;7.058;2023-08-21T07:42:45;101730.63;;;22.58;87.65
67109;BME280;54027;50.786;7.058;2023-08-21T07:45:10;101726.84;;;22.65;87.87
67109;BME280;54027;50.786;7.058;2023-08-21T07:47:36;101728.25;;;22.72;87.28
67109;BME280;54027;50.786;7.058;2023-08-21T07:50:01;101735.91;;;22.78;86.50
67109;BME280;54027;50.786;7.058;2023-08-21T07:52:27;101732.09;;;22.85;86.63
67109;BME280;54027;50.786;7.058;2023-08-21T07:54:53;101728.25;;;22.92;86.55
67109;BME280;54027;50.786;7.058;2023-08-21T07:57:18;101723.38;;;23.03;85.19
67109;BME280;54027;50.786;7.058;2023-08-21T07:59:44;101725.59;;;23.12;84.84
67109;BME280;54027;50.786;7.058;2023-08-21T08:02:09;101729.75;;;23.18;85.09
67109;BME280;54027;50.786;7.058;2023-08-21T08:04:37;101724.34;;;23.21;83.95
67109;BME280;54027;50.786;7.058;2023-08-21T08:07:03;101728.63;;;23.23;83.29
67109;BME280;54027;50.786;7.058;2023-08-21T08:09:28;101722.25;;;23.27;83.73
67109;BME280;54027;50.786;7.058;2023-08-21T08:11:54;101730.75;;;23.34;84.31
67109;BME280;54027;50.786;7.058;2023-08-21T08:14:19;101732.19;;;23.41;84.74
67109;BME280;54027;50.786;7.058;2023-08-21T08:16:44;101731.84;;;23.49;84.36
67109;BME280;54027;50.786;7.058;2023-08-21T08:19:10;101727.22;;;23.54;84.13
67109;BME280;54027;50.786;7.058;2023-08-21T08:21:35;101725.13;;;23.60;83.78
67109;BME280;54027;50.786;7.058;2023-08-21T08:24:01;101735.34;;;23.68;83.61
67109;BME280;54027;50.786;7.058;2023-08-21T08:26:27;101732.47;;;23.72;82.71
67109;BME280;54027;50.786;7.058;2023-08-21T08:28:52;101727.91;;;23.76;82.90
67109;BME280;54027;50.786;7.058;2023-08-21T08:31:18;101723.25;;;23.81;81.36
67109;BME280;54027;50.786;7.058;2023-08-21T08:33:44;101728.09;;;23.90;81.85
67109;BME280;54027;50.786;7.058;2023-08-21T08:36:10;101732.97;;;23.99;81.49
67109;BME280;54027;50.786;7.058;2023-08-21T08:38:35;101724.69;;;24.07;81.55
67109;BME280;54027;50.786;7.058;2023-08-21T08:41:02;101725.25;;;24.13;81.07
67109;BME280;54027;50.786;7.058;2023-08-21T08:43:34;101719.56;;;24.21;80.24
67109;BME280;54027;50.786;7.058;2023-08-21T08:46:01;101723.22;;;24.35;80.61
67109;BME280;54027;50.786;7.058;2023-08-21T08:48:28;101729.63;;;24.48;79.80
67109;BME280;54027;50.786;7.058;2023-08-21T08:50:53;101719.59;;;24.55;79.86
67109;BME280;54027;50.786;7.058;2023-08-21T08:53:19;101716.69;;;24.60;79.59
67109;BME280;54027;50.786;7.058;2023-08-21T08:55:45;101722.59;;;24.65;78.92
67109;BME280;54027;50.786;7.058;2023-08-21T08:58:10;101721.53;;;24.69;78.92
67109;BME280;54027;50.786;7.058;2023-08-21T09:00:36;101716.53;;;24.80;78.81
67109;BME280;54027;50.786;7.058;2023-08-21T09:03:02;101716.97;;;24.88;78.61
67109;BME280;54027;50.786;7.058;2023-08-21T09:05:28;101715.84;;;24.93;78.90
67109;BME280;54027;50.786;7.058;2023-08-21T09:08:09;101715.25;;;25.04;77.79
67109;BME280;54027;50.786;7.058;2023-08-21T09:10:40;101714.66;;;25.15;77.61
67109;BME280;54027;50.786;7.058;2023-08-21T09:13:25;101710.75;;;25.22;76.41
67109;BME280;54027;50.786;7.058;2023-08-21T09:15:54;101709.50;;;25.29;76.15
67109;BME280;54027;50.786;7.058;2023-08-21T09:18:20;101704.13;;;25.30;75.51
67109;BME280;54027;50.786;7.058;2023-08-21T09:20:46;101704.97;;;25.31;74.98
67109;BME280;54027;50.786;7.058;2023-08-21T09:23:14;101700.19;;;25.37;74.70
67109;BME280;54027;50.786;7.058;2023-08-21T09:25:40;101713.13;;;25.43;74.38
67109;BME280;54027;50.786;7.058;2023-08-21T09:28:07;101694.28;;;25.49;72.59
67109;BME280;54027;50.786;7.058;2023-08-21T09:30:50;101686.84;;;25.56;71.90
67109;BME280;54027;50.786;7.058;2023-08-21T09:33:19;101697.00;;;25.63;72.08
67109;BME280;54027;50.786;7.058;2023-08-21T09:35:46;101691.41;;;25.68;72.08
67109;BME280;54027;50.786;7.058;2023-08-21T09:38:12;101693.66;;;25.76;71.00
67109;BME280;54027;50.786;7.058;2023-08-21T09:40:41;101693.38;;;25.80;70.93
67109;BME280;54027;50.786;7.058;2023-08-21T09:43:11;101695.59;;;25.88;70.90
67109;BME280;54027;50.786;7.058;2023-08-21T09:45:37;101686.97;;;26.00;69.77
67109;BME280;54027;50.786;7.058;2023-08-21T09:48:03;101682.66;;;26.13;69.35
67109;BME280;54027;50.786;7.058;2023-08-21T09:50:29;101680.09;;;26.27;68.90
67109;BME280;54027;50.786;7.058;2023-08-21T09:52:56;101672.59;;;26.34;67.98
67109;BME280;54027;50.786;7.058;2023-08-21T09:55:23;101668.81;;;26.38;68.01
67109;BME280;54027;50.786;7.058;2023-08-21T09:57:50;101682.66;;;26.43;68.18
67109;BME280;54027;50.786;7.058;2023-08-21T10:00:28;101682.41;;;26.47;68.32
67109;BME280;54027;50.786;7.058;2023-08-21T10:02:54;101678.88;;;26.47;68.44
67109;BME280;54027;50.786;7.058;2023-08-21T10:05:21;101673.41;;;26.50;67.69
67109;BME280;54027;50.786;7.058;2023-08-21T10:07:48;101651.31;;;26.63;66.86
67109;BME280;54027;50.786;7.058;2023-08-21T10:10:14;101653.22;;;26.76;66.37
67109;BME280;54027;50.786;7.058;2023-08-21T10:12:40;101655.72;;;26.79;66.83
67109;BME280;54027;50.786;7.058;2023-08-21T10:15:07;101641.34;;;26.83;66.08
67109;BME280;54027;50.786;7.058;2023-08-21T10:17:38;101656.38;;;26.96;66.59
67109;BME280;54027;50.786;7.058;2023-08-21T10:20:04;101648.03;;;27.02;66.13
67109;BME280;54027;50.786;7.058;2023-08-21T10:22:42;101643.13;;;26.96;66.33
67109;BME280;54027;50.786;7.058;2023-08-21T10:25:22;101647.31;;;26.86;66.06
67109;BME280;54027;50.786;7.058;2023-08-21T10:27:52;101648.06;;;26.88;66.37
67109;BME280;54027;50.786;7.058;2023-08-21T10:30:26;101648.72;;;26.92;66.47
67109;BME280;54027;50.786;7.058;2023-08-21T10:32:59;101643.97;;;26.97;66.26
67109;BME280;54027;50.786;7.058;2023-08-21T10:35:28;101637.81;;;26.96;65.96
67109;BME280;54027;50.786;7.058;2023-08-21T10:38:09;101643.31;;;26.93;66.34
67109;BME280;54027;50.786;7.058;2023-08-21T10:41:04;101643.22;;;27.09;66.81
67109;BME280;54027;50.786;7.058;2023-08-21T10:43:59;101641.56;;;27.20;66.17
67109;BME280;54027;50.786;7.058;2023-08-21T10:46:25;101632.94;;;27.31;65.35
67109;BME280;54027;50.786;7.058;2023-08-21T10:48:51;101633.56;;;27.35;65.08
67109;BME280;54027;50.786;7.058;2023-08-21T10:51:17;101636.88;;;27.38;65.31
67109;BME280;54027;50.786;7.058;2023-08-21T10:53:42;101611.06;;;27.40;63.54
67109;BME280;54027;50.786;7.058;2023-08-21T10:56:08;101603.59;;;27.47;63.30
67109;BME280;54027;50.786;7.058;2023-08-21T10:58:44;101621.72;;;27.54;63.67
67109;BME280;54027;50.786;7.058;2023-08-21T11:01:13;101604.31;;;27.63;62.88
67109;BME280;54027;50.786;7.058;2023-08-21T11:03:39;101610.22;;;27.80;62.47
67109;BME280;54027;50.786;7.058;2023-08-21T11:06:09;101611.63;;;27.99;62.70
67109;BME280;54027;50.786;7.058;2023-08-21T11:08:36;101596.56;;;28.12;61.80
67109;BME280;54027;50.786;7.058;2023-08-21T11:11:02;101589.88;;;28.19;61.80
67109;BME280;54027;50.786;7.058;2023-08-21T11:13:31;101574.88;;;28.18;60.33
67109;BME280;54027;50.786;7.058;2023-08-21T11:16:02;101574.88;;;28.18;59.83
67109;BME280;54027;50.786;7.058;2023-08-21T11:18:37;101600.59;;;28.05;61.57
67109;BME280;54027;50.786;7.058;2023-08-21T11:21:11;101581.59;;;28.11;59.59
67109;BME280;54027;50.786;7.058;2023-08-21T11:23:41;101591.38;;;28.10;60.49
67109;BME280;54027;50.786;7.058;2023-08-21T11:26:10;101586.31;;;28.06;59.44
67109;BME280;54027;50.786;7.058;2023-08-21T11:28:36;101588.28;;;28.16;59.72
67109;BME280;54027;50.786;7.058;2023-08-21T11:31:02;101585.09;;;28.24;59.32
67109;BME280;54027;50.786;7.058;2023-08-21T11:33:28;101582.66;;;28.21;59.23
67109;BME280;54027;50.786;7.058;2023-08-21T11:35:54;101593.94;;;28.37;59.50
67109;BME280;54027;50.786;7.058;2023-08-21T11:38:21;101595.63;;;28.51;59.97
67109;BME280;54027;50.786;7.058;2023-08-21T11:40:58;101581.47;;;28.50;58.69
67109;BME280;54027;50.786;7.058;2023-08-21T11:43:37;101564.34;;;28.54;57.77
67109;BME280;54027;50.786;7.058;2023-08-21T11:46:07;101570.50;;;28.67;57.86
67109;BME280;54027;50.786;7.058;2023-08-21T11:48:33;101549.44;;;28.77;56.25
67109;BME280;54027;50.786;7.058;2023-08-21T11:51:01;101561.34;;;28.84;57.19
67109;BME280;54027;50.786;7.058;2023-08-21T11:53:40;101568.22;;;28.99;57.38
67109;BME280;54027;50.786;7.058;2023-08-21T11:56:16;101571.69;;;28.88;57.60
67109;BME280;54027;50.786;7.058;2023-08-21T11:58:44;101571.91;;;28.73;57.92
67109;BME280;54027;50.786;7.058;2023-08-21T12:01:18;101558.03;;;28.80;56.96
67109;BME280;54027;50.786;7.058;2023-08-21T12:03:44;101557.56;;;28.99;56.64
67109;BME280;54027;50.786;7.058;2023-08-21T12:06:11;101545.75;;;29.27;56.45
67109;BME280;54027;50.786;7.058;2023-08-21T12:08:37;101541.81;;;29.56;55.83
67109;BME280;54027;50.786;7.058;2023-08-21T12:11:03;101531.63;;;29.61;55.25
67109;BME280;54027;50.786;7.058;2023-08-21T12:13:30;101514.13;;;29.81;54.13
67109;BME280;54027;50.786;7.058;2023-08-21T12:15:55;101509.03;;;29.78;53.56
67109;BME280;54027;50.786;7.058;2023-08-21T12:18:21;101523.84;;;29.93;54.15
67109;BME280;54027;50.786;7.058;2023-08-21T12:20:46;101535.19;;;29.73;54.73
67109;BME280;54027;50.786;7.058;2023-08-21T12:23:11;101520.81;;;29.86;53.90
67109;BME280;54027;50.786;7.058;2023-08-21T12:25:37;101491.78;;;30.06;51.91
67109;BME280;54027;50.786;7.058;2023-08-21T12:28:02;101491.66;;;30.18;52.12
67109;BME280;54027;50.786;7.058;2023-08-21T12:30:28;101508.31;;;29.76;53.34
67109;BME280;54027;50.786;7.058;2023-08-21T12:32:53;101513.41;;;29.79;52.88
67109;BME280;54027;50.786;7.058;2023-08-21T12:35:19;101510.63;;;29.91;52.13
67109;BME280;54027;50.786;7.058;2023-08-21T12:37:44;101506.16;;;29.92;52.17
67109;BME280;54027;50.786;7.058;2023-08-21T12:40:10;101494.22;;;29.97;51.90
67109;BME280;54027;50.786;7.058;2023-08-21T12:42:35;101475.53;;;30.09;50.94
67109;BME280;54027;50.786;7.058;2023-08-21T12:45:01;101484.28;;;30.22;51.32
67109;BME280;54027;50.786;7.058;2023-08-21T12:47:26;101477.97;;;30.45;51.22